sensor_id;sensor_type;location;lat;lon;timestamp;pressure;altitude;pressure_sealevel;temperature;humidity
70338;BME280;57757;53.198;19.646;2024-03-29T00:00:42;98350.11;;;8.71;64.50
70338;BME280;57757;53.198;19.646;2024-03-29T00:03:29;98357.52;;;8.64;64.48
70338;BME280;57757;53.198;19.646;2024-03-29T00:05:57;98365.39;;;8.58;64.46
70338;BME280;57757;53.198;19.646;2024-03-29T00:08:24;98369.80;;;8.53;64.42
70338;BME280;57757;53.198;19.646;2024-03-29T00:10:51;98371.33;;;8.50;64.49
70338;BME280;57757;53.198;19.646;2024-03-29T00:13:19;98372.25;;;8.49;64.43
70338;BME280;57757;53.198;19.646;2024-03-29T00:15:46;98379.55;;;8.48;64.51
70338;BME280;57757;53.198;19.646;2024-03-29T00:18:13;98380.84;;;8.47;64.45
70338;BME280;57757;53.198;19.646;2024-03-29T00:20:40;98383.45;;;8.46;64.39
70338;BME280;57757;53.198;19.646;2024-03-29T00:23:07;98388.19;;;8.45;64.38
70338;BME280;57757;53.198;19.646;2024-03-29T00:25:35;98391.20;;;8.43;64.35
70338;BME280;57757;53.198;19.646;2024-03-29T00:28:02;98395.63;;;8.41;64.32
70338;BME280;57757;53.198;19.646;2024-03-29T00:30:30;98396.45;;;8.38;64.37
70338;BME280;57757;53.198;19.646;2024-03-29T00:32:57;98398.29;;;8.36;64.35
70338;BME280;57757;53.198;19.646;2024-03-29T00:35:25;98403.42;;;8.33;64.24
70338;BME280;57757;53.198;19.646;2024-03-29T00:37:52;98411.02;;;8.29;64.18
70338;BME280;57757;53.198;19.646;2024-03-29T00:40:19;98417.17;;;8.27;64.35
70338;BME280;57757;53.198;19.646;2024-03-29T00:42:46;98415.50;;;8.25;64.41
70338;BME280;57757;53.198;19.646;2024-03-29T00:45:13;98423.18;;;8.24;64.37
70338;BME280;57757;53.198;19.646;2024-03-29T00:47:58;98428.79;;;8.22;64.25
70338;BME280;57757;53.198;19.646;2024-03-29T00:50:26;98434.63;;;8.19;64.26
70338;BME280;57757;53.198;19.646;2024-03-29T00:52:53;98437.81;;;8.17;64.34
70338;BME280;57757;53.198;19.646;2024-03-29T00:55:20;98444.14;;;8.15;64.29
70338;BME280;57757;53.198;19.646;2024-03-29T00:57:47;98449.58;;;8.13;64.27
70338;BME280;57757;53.198;19.646;2024-03-29T01:00:15;98452.27;;;8.11;64.34
70338;BME280;57757;53.198;19.646;2024-03-29T01:02:42;98456.67;;;8.09;64.28
70338;BME280;57757;53.198;19.646;2024-03-29T01:05:09;98463.33;;;8.08;64.24
70338;BME280;57757;53.198;19.646;2024-03-29T01:07:36;98466.29;;;8.07;64.38
70338;BME280;57757;53.198;19.646;2024-03-29T01:10:04;98475.50;;;8.05;64.33
70338;BME280;57757;53.198;19.646;2024-03-29T01:12:32;98485.28;;;8.04;64.34
70338;BME280;57757;53.198;19.646;2024-03-29T01:14:59;98492.80;;;8.02;64.36
70338;BME280;57757;53.198;19.646;2024-03-29T01:17:26;98496.89;;;7.99;64.31
70338;BME280;57757;53.198;19.646;2024-03-29T01:19:54;98497.85;;;7.97;64.28
70338;BME280;57757;53.198;19.646;2024-03-29T01:22:21;98504.48;;;7.96;64.28
70338;BME280;57757;53.198;19.646;2024-03-29T01:24:48;98512.47;;;7.95;64.38
70338;BME280;57757;53.198;19.646;2024-03-29T01:27:16;98518.60;;;7.93;64.37
70338;BME280;57757;53.198;19.646;2024-03-29T01:29:43;98521.44;;;7.91;64.29
70338;BME280;57757;53.198;19.646;2024-03-29T01:32:10;98523.27;;;7.89;64.32
70338;BME280;57757;53.198;19.646;2024-03-29T01:34:37;98521.85;;;7.85;64.33
70338;BME280;57757;53.198;19.646;2024-03-29T01:37:04;98524.73;;;7.82;64.25
70338;BME280;57757;53.198;19.646;2024-03-29T01:39:32;98527.29;;;7.79;64.23
70338;BME280;57757;53.198;19.646;2024-03-29T01:41:59;98535.69;;;7.77;64.28
70338;BME280;57757;53.198;19.646;2024-03-29T01:44:26;98539.93;;;7.74;64.34
70338;BME280;57757;53.198;19.646;2024-03-29T01:46:53;98545.21;;;7.72;64.30
70338;BME280;57757;53.198;19.646;2024-03-29T01:49:21;98554.30;;;7.70;64.36
70338;BME280;57757;53.198;19.646;2024-03-29T01:51:48;98561.96;;;7.68;64.35
70338;BME280;57757;53.198;19.646;2024-03-29T01:54:17;98561.85;;;7.66;64.35
70338;BME280;57757;53.198;19.646;2024-03-29T01:56:45;98561.42;;;7.64;64.35
70338;BME280;57757;53.198;19.646;2024-03-29T01:59:14;98570.14;;;7.62;64.38
70338;BME280;57757;53.198;19.646;2024-03-29T02:01:45;98568.31;;;7.60;64.36
70338;BME280;57757;53.198;19.646;2024-03-29T02:04:12;98572.20;;;7.58;64.35
70338;BME280;57757;53.198;19.646;2024-03-29T02:06:40;98579.71;;;7.56;64.28
70338;BME280;57757;53.198;19.646;2024-03-29T02:09:07;98580.36;;;7.53;64.31
70338;BME280;57757;53.198;19.646;2024-03-29T02:11:34;98593.80;;;7.50;64.37
70338;BME280;57757;53.198;19.646;2024-03-29T02:14:03;98597.19;;;7.47;64.38
70338;BME280;57757;53.198;19.646;2024-03-29T02:16:33;98598.83;;;7.44;64.51
70338;BME280;57757;53.198;19.646;2024-03-29T02:19:00;98599.61;;;7.42;64.38
70338;BME280;57757;53.198;19.646;2024-03-29T02:21:27;98609.90;;;7.39;64.39
70338;BME280;57757;53.198;19.646;2024-03-29T02:24:06;98620.60;;;7.35;64.37
70338;BME280;57757;53.198;19.646;2024-03-29T02:26:34;98631.11;;;7.31;64.43
70338;BME280;57757;53.198;19.646;2024-03-29T02:29:04;98642.09;;;7.29;64.50
70338;BME280;57757;53.198;19.646;2024-03-29T02:31:31;98643.05;;;7.26;64.55
70338;BME280;57757;53.198;19.646;2024-03-29T02:33:58;98653.05;;;7.21;64.48
70338;BME280;57757;53.198;19.646;2024-03-29T02:36:26;98661.27;;;7.19;64.56
70338;BME280;57757;53.198;19.646;2024-03-29T02:38:53;98667.06;;;7.16;64.51
70338;BME280;57757;53.198;19.646;2024-03-29T02:41:22;98672.15;;;7.14;64.52
70338;BME280;57757;53.198;19.646;2024-03-29T02:43:49;98677.95;;;7.11;64.54
70338;BME280;57757;53.198;19.646;2024-03-29T02:46:16;98681.35;;;7.08;64.59
70338;BME280;57757;53.198;19.646;2024-03-29T02:48:44;98692.66;;;7.05;64.62
70338;BME280;57757;53.198;19.646;2024-03-29T02:51:11;98700.04;;;7.02;64.72
70338;BME280;57757;53.198;19.646;2024-03-29T02:53:38;98705.33;;;6.99;64.62
70338;BME280;57757;53.198;19.646;2024-03-29T02:56:06;98714.27;;;6.95;64.54
70338;BME280;57757;53.198;19.646;2024-03-29T02:58:35;98718.91;;;6.90;64.58
70338;BME280;57757;53.198;19.646;2024-03-29T03:01:08;98727.81;;;6.87;64.61
70338;BME280;57757;53.198;19.646;2024-03-29T03:03:35;98737.95;;;6.84;64.72
70338;BME280;57757;53.198;19.646;2024-03-29T03:06:03;98741.17;;;6.81;64.74
70338;BME280;57757;53.198;19.646;2024-03-29T03:08:31;98748.88;;;6.77;64.63
70338;BME280;57757;53.198;19.646;2024-03-29T03:11:01;98750.02;;;6.73;64.81
70338;BME280;57757;53.198;19.646;2024-03-29T03:13:31;98756.20;;;6.69;64.85
70338;BME280;57757;53.198;19.646;2024-03-29T03:15:58;98756.46;;;6.66;64.84
70338;BME280;57757;53.198;19.646;2024-03-29T03:18:25;98768.13;;;6.64;64.80
70338;BME280;57757;53.198;19.646;2024-03-29T03:20:53;98772.38;;;6.60;64.88
70338;BME280;57757;53.198;19.646;2024-03-29T03:23:21;98776.42;;;6.58;64.93
70338;BME280;57757;53.198;19.646;2024-03-29T03:28:22;98782.92;;;6.54;64.97
70338;BME280;57757;53.198;19.646;2024-03-29T03:30:50;98787.15;;;6.51;65.02
70338;BME280;57757;53.198;19.646;2024-03-29T03:33:17;98785.38;;;6.47;64.96
70338;BME280;57757;53.198;19.646;2024-03-29T03:35:45;98788.61;;;6.43;64.99
70338;BME280;57757;53.198;19.646;2024-03-29T03:38:13;98795.58;;;6.40;65.12
70338;BME280;57757;53.198;19.646;2024-03-29T03:40:40;98796.04;;;6.37;64.99
70338;BME280;57757;53.198;19.646;2024-03-29T03:43:09;98800.45;;;6.33;65.00
70338;BME280;57757;53.198;19.646;2024-03-29T03:45:38;98803.66;;;6.30;65.11
70338;BME280;57757;53.198;19.646;2024-03-29T03:48:09;98801.36;;;6.25;65.12
70338;BME280;57757;53.198;19.646;2024-03-29T03:50:38;98798.70;;;6.21;65.17
70338;BME280;57757;53.198;19.646;2024-03-29T03:53:05;98794.31;;;6.17;65.21
70338;BME280;57757;53.198;19.646;2024-03-29T03:55:37;98791.16;;;6.13;65.37
70338;BME280;57757;53.198;19.646;2024-03-29T03:58:04;98793.70;;;6.09;65.30
70338;BME280;57757;53.198;19.646;2024-03-29T04:00:31;98790.02;;;6.04;65.24
70338;BME280;57757;53.198;19.646;2024-03-29T04:02:59;98788.27;;;5.99;65.20
70338;BME280;57757;53.198;19.646;2024-03-29T04:05:26;98784.60;;;5.95;65.31
70338;BME280;57757;53.198;19.646;2024-03-29T04:07:53;98790.26;;;5.90;65.28
70338;BME280;57757;53.198;19.646;2024-03-29T04:10:20;98786.37;;;5.86;65.36
70338;BME280;57757;53.198;19.646;2024-03-29T04:12:50;98791.15;;;5.81;65.50
70338;BME280;57757;53.198;19.646;2024-03-29T04:15:17;98797.15;;;5.75;65.41
70338;BME280;57757;53.198;19.646;2024-03-29T04:17:45;98798.14;;;5.70;65.45
70338;BME280;57757;53.198;19.646;2024-03-29T04:20:12;98797.92;;;5.66;65.50
70338;BME280;57757;53.198;19.646;2024-03-29T04:22:39;98798.35;;;5.63;65.53
70338;BME280;57757;53.198;19.646;2024-03-29T04:25:07;98801.71;;;5.59;65.55
70338;BME280;57757;53.198;19.646;2024-03-29T04:27:34;98807.15;;;5.56;65.58
70338;BME280;57757;53.198;19.646;2024-03-29T04:30:01;98812.58;;;5.53;65.54
70338;BME280;57757;53.198;19.646;2024-03-29T04:32:29;98815.73;;;5.51;65.52
70338;BME280;57757;53.198;19.646;2024-03-29T04:34:57;98816.30;;;5.48;65.76
70338;BME280;57757;53.198;19.646;2024-03-29T04:37:24;98816.70;;;5.47;65.68
70338;BME280;57757;53.198;19.646;2024-03-29T04:39:51;98818.78;;;5.46;65.81
70338;BME280;57757;53.198;19.646;2024-03-29T04:42:19;98820.40;;;5.43;65.72
70338;BME280;57757;53.198;19.646;2024-03-29T04:44:46;98820.45;;;5.41;65.82
70338;BME280;57757;53.198;19.646;2024-03-29T04:47:13;98825.85;;;5.39;65.77
70338;BME280;57757;53.198;19.646;2024-03-29T04:49:40;98828.48;;;5.37;65.84
70338;BME280;57757;53.198;19.646;2024-03-29T04:52:08;98835.30;;;5.33;65.63
70338;BME280;57757;53.198;19.646;2024-03-29T04:54:35;98839.86;;;5.29;65.76
70338;BME280;57757;53.198;19.646;2024-03-29T04:57:02;98836.82;;;5.26;65.81
70338;BME280;57757;53.198;19.646;2024-03-29T04:59:33;98840.86;;;5.23;65.77
70338;BME280;57757;53.198;19.646;2024-03-29T05:02:01;98830.38;;;5.21;65.91
70338;BME280;57757;53.198;19.646;2024-03-29T05:04:28;98826.59;;;5.21;65.90
70338;BME280;57757;53.198;19.646;2024-03-29T05:06:57;98825.02;;;5.23;65.98
70338;BME280;57757;53.198;19.646;2024-03-29T05:09:25;98832.89;;;5.25;66.16
70338;BME280;57757;53.198;19.646;2024-03-29T05:11:53;98842.75;;;5.31;66.27
70338;BME280;57757;53.198;19.646;2024-03-29T05:14:21;98841.59;;;5.36;66.21
70338;BME280;57757;53.198;19.646;2024-03-29T05:16:49;98843.16;;;5.43;66.38
70338;BME280;57757;53.198;19.646;2024-03-29T05:19:17;98846.92;;;5.51;66.53
70338;BME280;57757;53.198;19.646;2024-03-29T05:21:44;98849.32;;;5.59;66.44
70338;BME280;57757;53.198;19.646;2024-03-29T05:24:11;98849.33;;;5.66;66.55
70338;BME280;57757;53.198;19.646;2024-03-29T05:26:38;98843.94;;;5.74;66.54
70338;BME280;57757;53.198;19.646;2024-03-29T05:29:06;98852.70;;;5.83;66.56
70338;BME280;57757;53.198;19.646;2024-03-29T05:31:34;98851.98;;;5.91;66.52
70338;BME280;57757;53.198;19.646;2024-03-29T05:34:02;98856.77;;;6.00;66.46
70338;BME280;57757;53.198;19.646;2024-03-29T05:36:30;98859.13;;;6.08;66.58
70338;BME280;57757;53.198;19.646;2024-03-29T05:38:57;98856.80;;;6.17;66.44
70338;BME280;57757;53.198;19.646;2024-03-29T05:41:26;98858.96;;;6.27;66.51
70338;BME280;57757;53.198;19.646;2024-03-29T05:43:53;98859.73;;;6.37;66.46
70338;BME280;57757;53.198;19.646;2024-03-29T05:46:20;98856.39;;;6.45;66.39
70338;BME280;57757;53.198;19.646;2024-03-29T05:48:47;98867.23;;;6.53;66.42
70338;BME280;57757;53.198;19.646;2024-03-29T05:51:15;98872.22;;;6.60;66.38
70338;BME280;57757;53.198;19.646;2024-03-29T05:53:42;98872.38;;;6.66;66.42
70338;BME280;57757;53.198;19.646;2024-03-29T05:56:09;98876.52;;;6.72;66.29
70338;BME280;57757;53.198;19.646;2024-03-29T05:58:37;98876.57;;;6.77;66.38
70338;BME280;57757;53.198;19.646;2024-03-29T06:01:04;98875.95;;;6.80;66.31
70338;BME280;57757;53.198;19.646;2024-03-29T06:03:31;98868.48;;;6.82;66.24
70338;BME280;57757;53.198;19.646;2024-03-29T06:05:58;98875.31;;;6.84;66.31
70338;BME280;57757;53.198;19.646;2024-03-29T06:08:26;98876.96;;;6.87;66.23
70338;BME280;57757;53.198;19.646;2024-03-29T06:10:54;98880.34;;;6.90;66.36
70338;BME280;57757;53.198;19.646;2024-03-29T06:13:21;98872.78;;;6.94;66.30
70338;BME280;57757;53.198;19.646;2024-03-29T06:15:51;98871.80;;;6.98;66.37
70338;BME280;57757;53.198;19.646;2024-03-29T06:18:22;98874.07;;;7.03;66.49
70338;BME280;57757;53.198;19.646;2024-03-29T06:20:49;98876.11;;;7.09;66.43
70338;BME280;57757;53.198;19.646;2024-03-29T06:23:16;98868.64;;;7.16;66.35
70338;BME280;57757;53.198;19.646;2024-03-29T06:25:44;98883.73;;;7.20;66.30
70338;BME280;57757;53.198;19.646;2024-03-29T06:28:11;98899.80;;;7.27;66.39
70338;BME280;57757;53.198;19.646;2024-03-29T06:30:40;98901.35;;;7.33;66.27
70338;BME280;57757;53.198;19.646;2024-03-29T06:33:08;98893.72;;;7.39;66.35
70338;BME280;57757;53.198;19.646;2024-03-29T06:35:35;98905.85;;;7.44;66.16
70338;BME280;57757;53.198;19.646;2024-03-29T06:38:02;98897.02;;;7.50;66.28
70338;BME280;57757;53.198;19.646;2024-03-29T06:40:29;98906.33;;;7.56;66.15
70338;BME280;57757;53.198;19.646;2024-03-29T06:42:57;98910.27;;;7.62;66.22
70338;BME280;57757;53.198;19.646;2024-03-29T06:45:26;98903.16;;;7.68;66.19
70338;BME280;57757;53.198;19.646;2024-03-29T06:47:53;98895.83;;;7.75;66.20
70338;BME280;57757;53.198;19.646;2024-03-29T06:50:21;98896.77;;;7.84;66.26
70338;BME280;57757;53.198;19.646;2024-03-29T06:52:48;98894.09;;;7.91;66.14
70338;BME280;57757;53.198;19.646;2024-03-29T06:55:15;98898.85;;;7.99;66.12
70338;BME280;57757;53.198;19.646;2024-03-29T06:57:43;98903.54;;;8.09;66.05
70338;BME280;57757;53.198;19.646;2024-03-29T07:00:11;98916.70;;;8.20;66.15
70338;BME280;57757;53.198;19.646;2024-03-29T07:02:39;98922.96;;;8.29;66.05
70338;BME280;57757;53.198;19.646;2024-03-29T07:05:06;98925.89;;;8.40;66.14
70338;BME280;57757;53.198;19.646;2024-03-29T07:07:34;98921.87;;;8.51;65.91
70338;BME280;57757;53.198;19.646;2024-03-29T07:10:02;98919.84;;;8.59;66.07
70338;BME280;57757;53.198;19.646;2024-03-29T07:12:29;98928.86;;;8.68;65.90
70338;BME280;57757;53.198;19.646;2024-03-29T07:14:56;98932.23;;;8.76;65.85
70338;BME280;57757;53.198;19.646;2024-03-29T07:17:23;98939.76;;;8.84;65.71
70338;BME280;57757;53.198;19.646;2024-03-29T07:19:51;98939.36;;;8.90;65.51
70338;BME280;57757;53.198;19.646;2024-03-29T07:22:18;98950.42;;;8.95;65.56
70338;BME280;57757;53.198;19.646;2024-03-29T07:25:03;98956.48;;;9.00;65.49
70338;BME280;57757;53.198;19.646;2024-03-29T07:27:31;98947.04;;;9.07;65.36
70338;BME280;57757;53.198;19.646;2024-03-29T07:30:02;98939.85;;;9.14;65.36
70338;BME280;57757;53.198;19.646;2024-03-29T07:32:31;98937.36;;;9.21;65.35
70338;BME280;57757;53.198;19.646;2024-03-29T07:34:58;98932.66;;;9.25;65.23
70338;BME280;57757;53.198;19.646;2024-03-29T07:37:27;98928.33;;;9.30;65.13
70338;BME280;57757;53.198;19.646;2024-03-29T07:39:54;98934.52;;;9.36;65.15
70338;BME280;57757;53.198;19.646;2024-03-29T07:42:21;98940.16;;;9.43;65.09
70338;BME280;57757;53.198;19.646;2024-03-29T07:44:49;98933.99;;;9.49;64.98
70338;BME280;57757;53.198;19.646;2024-03-29T07:47:17;98940.23;;;9.54;64.74
70338;BME280;57757;53.198;19.646;2024-03-29T07:49:44;98926.23;;;9.57;64.87
70338;BME280;57757;53.198;19.646;2024-03-29T07:52:12;98922.55;;;9.62;64.83
70338;BME280;57757;53.198;19.646;2024-03-29T07:54:40;98927.52;;;9.68;64.66
70338;BME280;57757;53.198;19.646;2024-03-29T07:57:07;98938.96;;;9.73;64.62
70338;BME280;57757;53.198;19.646;2024-03-29T07:59:35;98938.52;;;9.79;64.77
70338;BME280;57757;53.198;19.646;2024-03-29T08:02:03;98935.91;;;9.88;64.82
70338;BME280;57757;53.198;19.646;2024-03-29T08:04:30;98939.57;;;10.00;64.73
70338;BME280;57757;53.198;19.646;2024-03-29T08:06:57;98939.44;;;10.13;64.65
70338;BME280;57757;53.198;19.646;2024-03-29T08:09:24;98939.89;;;10.27;64.72
70338;BME280;57757;53.198;19.646;2024-03-29T08:11:52;98957.44;;;10.43;64.53
70338;BME280;57757;53.198;19.646;2024-03-29T08:14:19;98958.98;;;10.56;64.36
70338;BME280;57757;53.198;19.646;2024-03-29T08:16:46;98962.71;;;10.70;64.51
70338;BME280;57757;53.198;19.646;2024-03-29T08:19:13;98969.98;;;10.87;64.45
70338;BME280;57757;53.198;19.646;2024-03-29T08:21:41;98975.20;;;11.07;64.56
70338;BME280;57757;53.198;19.646;2024-03-29T08:24:08;98979.66;;;11.24;64.23
70338;BME280;57757;53.198;19.646;2024-03-29T08:26:35;98983.77;;;11.36;63.92
70338;BME280;57757;53.198;19.646;2024-03-29T08:29:02;98979.98;;;11.47;63.80
70338;BME280;57757;53.198;19.646;2024-03-29T08:31:30;98985.34;;;11.55;63.76
70338;BME280;57757;53.198;19.646;2024-03-29T08:33:57;98985.77;;;11.61;63.37
70338;BME280;57757;53.198;19.646;2024-03-29T08:36:29;99002.80;;;11.69;63.51
70338;BME280;57757;53.198;19.646;2024-03-29T08:38:56;98993.29;;;11.75;63.25
70338;BME280;57757;53.198;19.646;2024-03-29T08:41:24;98994.02;;;11.82;63.26
70338;BME280;57757;53.198;19.646;2024-03-29T08:43:51;98999.25;;;11.93;63.17
70338;BME280;57757;53.198;19.646;2024-03-29T08:46:18;99002.06;;;12.11;63.38
70338;BME280;57757;53.198;19.646;2024-03-29T08:48:45;98998.02;;;12.22;62.89
70338;BME280;57757;53.198;19.646;2024-03-29T08:51:12;98994.09;;;12.31;62.88
70338;BME280;57757;53.198;19.646;2024-03-29T08:53:41;98998.63;;;12.45;63.03
70338;BME280;57757;53.198;19.646;2024-03-29T08:56:09;99002.29;;;12.59;62.71
70338;BME280;57757;53.198;19.646;2024-03-29T08:58:36;99009.82;;;12.72;62.62
70338;BME280;57757;53.198;19.646;2024-03-29T09:01:04;99010.88;;;12.82;62.29
70338;BME280;57757;53.198;19.646;2024-03-29T09:03:31;99005.93;;;12.90;62.26
70338;BME280;57757;53.198;19.646;2024-03-29T09:05:59;99002.34;;;13.05;62.41
70338;BME280;57757;53.198;19.646;2024-03-29T09:08:26;99007.14;;;13.24;62.32
70338;BME280;57757;53.198;19.646;2024-03-29T09:10:53;99004.11;;;13.35;62.00
70338;BME280;57757;53.198;19.646;2024-03-29T09:13:21;99004.82;;;13.54;62.24
70338;BME280;57757;53.198;19.646;2024-03-29T09:15:48;99011.39;;;13.68;61.88
70338;BME280;57757;53.198;19.646;2024-03-29T09:18:16;99012.33;;;13.73;61.39
70338;BME280;57757;53.198;19.646;2024-03-29T09:23:22;99011.27;;;13.96;61.10
70338;BME280;57757;53.198;19.646;2024-03-29T09:25:50;99020.14;;;14.05;61.13
70338;BME280;57757;53.198;19.646;2024-03-29T09:28:18;99023.92;;;14.13;60.82
70338;BME280;57757;53.198;19.646;2024-03-29T09:30:45;99019.16;;;14.20;60.56
70338;BME280;57757;53.198;19.646;2024-03-29T09:33:12;99017.84;;;14.24;60.85
70338;BME280;57757;53.198;19.646;2024-03-29T09:35:39;99008.99;;;14.32;60.65
70338;BME280;57757;53.198;19.646;2024-03-29T09:38:06;99010.56;;;14.45;60.70
70338;BME280;57757;53.198;19.646;2024-03-29T09:40:34;99007.99;;;14.56;60.43
70338;BME280;57757;53.198;19.646;2024-03-29T09:43:01;99010.45;;;14.65;60.00
70338;BME280;57757;53.198;19.646;2024-03-29T09:45:37;99012.55;;;14.70;60.03
70338;BME280;57757;53.198;19.646;2024-03-29T09:48:05;99015.89;;;14.91;60.18
70338;BME280;57757;53.198;19.646;2024-03-29T09:50:33;99013.08;;;15.14;59.96
70338;BME280;57757;53.198;19.646;2024-03-29T09:53:05;99014.52;;;15.23;59.48
70338;BME280;57757;53.198;19.646;2024-03-29T09:55:32;99011.34;;;15.23;59.35
70338;BME280;57757;53.198;19.646;2024-03-29T09:57:59;99010.55;;;15.33;59.61
70338;BME280;57757;53.198;19.646;2024-03-29T10:00:27;99011.31;;;15.49;59.53
70338;BME280;57757;53.198;19.646;2024-03-29T10:02:56;99014.92;;;15.67;59.03
70338;BME280;57757;53.198;19.646;2024-03-29T10:05:26;99015.91;;;15.76;58.74
70338;BME280;57757;53.198;19.646;2024-03-29T10:07:54;99018.33;;;15.85;58.61
70338;BME280;57757;53.198;19.646;2024-03-29T10:10:23;99021.66;;;15.99;58.47
70338;BME280;57757;53.198;19.646;2024-03-29T10:12:50;99026.83;;;16.14;58.32
70338;BME280;57757;53.198;19.646;2024-03-29T10:15:17;99038.92;;;16.22;57.86
70338;BME280;57757;53.198;19.646;2024-03-29T10:17:48;99048.36;;;16.31;57.98
70338;BME280;57757;53.198;19.646;2024-03-29T10:20:17;99058.93;;;16.46;57.84
70338;BME280;57757;53.198;19.646;2024-03-29T10:22:45;99053.20;;;16.45;57.37
70338;BME280;57757;53.198;19.646;2024-03-29T10:25:13;99048.22;;;16.38;57.14
70338;BME280;57757;53.198;19.646;2024-03-29T10:27:42;99052.55;;;16.28;57.20
70338;BME280;57757;53.198;19.646;2024-03-29T10:30:10;99051.16;;;16.23;57.03
70338;BME280;57757;53.198;19.646;2024-03-29T10:32:38;99054.08;;;16.16;56.63
70338;BME280;57757;53.198;19.646;2024-03-29T10:35:08;99056.27;;;16.09;56.64
70338;BME280;57757;53.198;19.646;2024-03-29T10:37:36;99063.30;;;16.17;56.89
70338;BME280;57757;53.198;19.646;2024-03-29T10:40:09;99065.71;;;16.20;56.52
70338;BME280;57757;53.198;19.646;2024-03-29T10:42:37;99059.75;;;16.23;56.73
70338;BME280;57757;53.198;19.646;2024-03-29T10:45:06;99048.90;;;16.41;56.69
70338;BME280;57757;53.198;19.646;2024-03-29T10:47:34;99039.11;;;16.59;56.61
70338;BME280;57757;53.198;19.646;2024-03-29T10:50:02;99043.62;;;16.79;56.57
70338;BME280;57757;53.198;19.646;2024-03-29T10:52:33;99054.16;;;17.08;56.44
70338;BME280;57757;53.198;19.646;2024-03-29T10:55:01;99054.79;;;17.26;56.14
70338;BME280;57757;53.198;19.646;2024-03-29T10:57:29;99055.75;;;17.35;55.66
70338;BME280;57757;53.198;19.646;2024-03-29T11:05:09;99069.09;;;17.48;55.13
70338;BME280;57757;53.198;19.646;2024-03-29T11:07:40;99064.28;;;17.49;54.78
70338;BME280;57757;53.198;19.646;2024-03-29T11:12:47;99050.56;;;17.62;54.67
70338;BME280;57757;53.198;19.646;2024-03-29T11:15:25;99041.19;;;17.88;54.78
70338;BME280;57757;53.198;19.646;2024-03-29T11:17:55;99034.42;;;18.13;54.33
70338;BME280;57757;53.198;19.646;2024-03-29T11:20:25;99030.69;;;18.35;54.34
70338;BME280;57757;53.198;19.646;2024-03-29T11:23:04;99031.91;;;18.64;54.41
70338;BME280;57757;53.198;19.646;2024-03-29T11:25:43;99028.71;;;18.74;53.69
70338;BME280;57757;53.198;19.646;2024-03-29T11:28:12;99038.52;;;18.84;53.78
70338;BME280;57757;53.198;19.646;2024-03-29T11:30:43;99054.30;;;18.96;53.39
70338;BME280;57757;53.198;19.646;2024-03-29T11:35:47;99052.43;;;19.34;53.43
70338;BME280;57757;53.198;19.646;2024-03-29T11:38:17;99050.48;;;19.66;53.43
70338;BME280;57757;53.198;19.646;2024-03-29T11:43:18;99047.98;;;20.04;52.56
70338;BME280;57757;53.198;19.646;2024-03-29T11:45:48;99052.08;;;19.95;52.03
70338;BME280;57757;53.198;19.646;2024-03-29T11:48:23;99053.59;;;19.91;51.95
70338;BME280;57757;53.198;19.646;2024-03-29T11:50:53;99050.34;;;19.92;52.03
70338;BME280;57757;53.198;19.646;2024-03-29T11:53:20;99058.20;;;20.02;51.88
70338;BME280;57757;53.198;19.646;2024-03-29T11:55:48;99055.52;;;19.83;51.22
70338;BME280;57757;53.198;19.646;2024-03-29T11:58:21;99054.98;;;19.54;50.65
70338;BME280;57757;53.198;19.646;2024-03-29T12:00:50;99045.36;;;19.25;50.66
70338;BME280;57757;53.198;19.646;2024-03-29T12:03:19;99042.39;;;19.02;50.22
70338;BME280;57757;53.198;19.646;2024-03-29T12:05:49;99039.09;;;18.81;50.18
70338;BME280;57757;53.198;19.646;2024-03-29T12:08:17;99023.23;;;18.81;50.47
70338;BME280;57757;53.198;19.646;2024-03-29T12:10:45;99030.45;;;19.06;50.35
70338;BME280;57757;53.198;19.646;2024-03-29T12:13:15;99037.90;;;19.22;49.78
70338;BME280;57757;53.198;19.646;2024-03-29T12:15:44;99035.17;;;19.29;49.71
70338;BME280;57757;53.198;19.646;2024-03-29T12:18:11;99048.55;;;19.46;49.67
70338;BME280;57757;53.198;19.646;2024-03-29T12:20:39;99059.36;;;19.74;49.75
70338;BME280;57757;53.198;19.646;2024-03-29T12:23:08;99051.34;;;19.97;49.23
70338;BME280;57757;53.198;19.646;2024-03-29T12:25:37;99057.99;;;19.76;48.54
70338;BME280;57757;53.198;19.646;2024-03-29T12:28:05;99058.46;;;19.38;48.40
70338;BME280;57757;53.198;19.646;2024-03-29T12:30:33;99068.98;;;19.09;48.23
70338;BME280;57757;53.198;19.646;2024-03-29T12:33:02;99061.94;;;19.02;48.45
70338;BME280;57757;53.198;19.646;2024-03-29T12:35:32;99057.27;;;19.13;48.42
70338;BME280;57757;53.198;19.646;2024-03-29T12:38:00;99058.98;;;19.06;48.36
70338;BME280;57757;53.198;19.646;2024-03-29T12:40:29;99065.20;;;18.96;48.02
70338;BME280;57757;53.198;19.646;2024-03-29T12:43:02;99062.76;;;19.10;48.17
70338;BME280;57757;53.198;19.646;2024-03-29T12:45:31;99056.95;;;19.62;48.73
70338;BME280;57757;53.198;19.646;2024-03-29T12:47:59;99062.00;;;20.12;48.29
70338;BME280;57757;53.198;19.646;2024-03-29T12:50:29;99067.60;;;20.23;47.74
70338;BME280;57757;53.198;19.646;2024-03-29T12:52:58;99057.39;;;20.23;47.50
70338;BME280;57757;53.198;19.646;2024-03-29T12:55:27;99054.02;;;20.39;47.67
70338;BME280;57757;53.198;19.646;2024-03-29T12:57:57;99071.97;;;20.72;47.23
70338;BME280;57757;53.198;19.646;2024-03-29T13:00:27;99073.73;;;20.72;46.89
70338;BME280;57757;53.198;19.646;2024-03-29T13:02:54;99070.60;;;20.73;46.84
70338;BME280;57757;53.198;19.646;2024-03-29T13:05:22;99072.31;;;20.99;46.93
70338;BME280;57757;53.198;19.646;2024-03-29T13:07:50;99073.20;;;21.18;46.45
70338;BME280;57757;53.198;19.646;2024-03-29T13:10:17;99073.27;;;21.23;46.29
70338;BME280;57757;53.198;19.646;2024-03-29T13:12:48;99073.08;;;21.30;46.12
70338;BME280;57757;53.198;19.646;2024-03-29T13:15:20;99073.52;;;21.31;46.01
70338;BME280;57757;53.198;19.646;2024-03-29T13:17:52;99080.06;;;21.33;46.06